Terminal Aerodrome Forecast
Issued by NWS Jackson, MS

Current Version | Previous Version | Text Only | Print | Product List | Glossary On
Versions: 1 2 3 4 5 6 7 8 9 10 11 12 13 14 15 16 17 18 19 20 21 22 23
000
FTUS44 KMEG 210500
TAFTUP
TAF
KTUP 210520Z 2106/2206 00000KT P6SM SKC
     FM211500 25006KT P6SM SCT040
     FM212100 30008KT P6SM VCTS SCT050CB BKN250
     FM220100 01005KT P6SM SCT040=

USA.gov is the U.S. government's official web portal to all federal, state and local government web resources and services.